Accueil
METAR-TAF:

METAR-TAF

Aéroports :

Bahreïn, Bahreïn

Aéroport international de Bahreïn

latitude: 26-16N, longitude: 050-39E, altitude: 2 m

Observation

Le bulletin a été fait il y a 10 minutes, à 00:30 UTC
Vent 5 kt de ouest
Température 35°C
Humidité 63%
Pression 997 hPa
Visibilité: 9000 m
Ciel clair

METAR: OBBI 270030Z 27005KT 9000 SKC 35/27 Q0997 NOSIG

Heure: 03:40 (00:40 UTC)

Prévision

Le bulletin a été fait il y a 1 heure et 40 minutes, à 23:00 UTC
Prévision valable du 27 à 00 UTC au 28 à 06 UTC
Vent 5 kt de direction variable
Visibilité: 8000 m
Evoluant progressivement
du 27 à 06 UTC au 27 à 08 UTC
Vent 14 kt de nord-ouest
Evoluant progressivement
du 27 à 11 UTC au 27 à 13 UTC
Vent 10 kt de nord/nord-est
Evoluant progressivement
du 27 à 15 UTC au 27 à 17 UTC
Vent 5 kt de direction variable

TAF: OBBI 262300Z 2700/2806 VRB05KT 8000 NSC BECMG 2706/2708 32014KT BECMG 2711/2713 03010KT BECMG 2715/2717 VRB05KT

Observations et prévisions météorologiques de plus de 4000 aéroports (messages METAR et TAF).

Les stations disponibles sont représentées par des disques jaunes et rouges sur la carte.

Passer la souris dessus pour voir le nom de la station.

Cliquer dessus pour voir les observations et prévisions météorologiques.

Pour changer de carte: cliquez sur les boutons verts avec une croix noire pour zoomer, sur le bouton vert avec un tiret pour effectuer un zoom arrière, ou sur les flèches vertes pour les cartes adjacentes.


METAR-TAF: